Time;durP1;ratioP1;P1;durP2;ratioP2;P2;SDS_P1;SDS_P2;PMS_P1;PMS_P2;Temp;Humidity;BMP_temperature;BMP_pressure;BME280_temperature;BME280_humidity;BME280_pressure;Samples;Min_cycle;Max_cycle;Signal;HPM_P1;HPM_P2
2022/10/12 00:01:43;;;;;;;16.03;7.70;;;;;;;18.50;44.19;102628.69;5093989;28;20024;-78
2022/10/12 00:04:08;;;;;;;18.33;7.70;;;;;;;18.36;44.53;102621.81;5093807;28;20028;-78
2022/10/12 00:06:34;;;;;;;16.77;8.10;;;;;;;18.55;44.29;102617.13;5094337;28;20066;-77
2022/10/12 00:08:59;;;;;;;18.33;7.80;;;;;;;18.69;43.72;102627.50;5093379;28;20031;-77
2022/10/12 00:11:27;;;;;;;18.50;8.53;;;;;;;18.74;43.47;102628.31;5094397;28;20032;-78
2022/10/12 00:13:54;;;;;;;19.83;8.00;;;;;;;18.63;43.90;102615.22;5093903;28;20020;-77
2022/10/12 00:16:21;;;;;;;15.53;6.80;;;;;;;18.60;43.75;102620.59;5094504;28;20058;-78
2022/10/12 00:18:51;;;;;;;18.60;7.27;;;;;;;18.41;44.67;102616.44;5094107;28;20078;-78
2022/10/12 00:21:17;;;;;;;14.73;6.63;;;;;;;18.36;44.54;102605.94;5094162;28;20031;-77
2022/10/12 00:23:43;;;;;;;19.27;7.03;;;;;;;18.52;44.33;102610.97;5094255;28;20032;-77
2022/10/12 00:26:21;;;;;;;17.90;6.90;;;;;;;18.43;44.47;102612.88;5093532;28;20093;-78
2022/10/12 00:28:47;;;;;;;20.50;7.00;;;;;;;18.28;44.35;102608.66;5093616;28;20035;-78
2022/10/12 00:31:19;;;;;;;24.43;8.67;;;;;;;18.31;44.35;102602.47;5093036;28;20020;-78
2022/10/12 00:33:45;;;;;;;17.55;7.75;;;;;;;18.16;44.96;102613.28;5093729;28;20027;-78
2022/10/12 00:36:20;;;;;;;18.57;8.73;;;;;;;18.24;44.48;102606.97;5093315;28;20020;-77
2022/10/12 00:38:47;;;;;;;19.80;7.97;;;;;;;18.18;44.56;102608.84;5092472;28;20024;-78
2022/10/12 00:41:14;;;;;;;10.93;6.90;;;;;;;18.30;43.82;102619.28;5094484;28;20028;-77
2022/10/12 00:43:41;;;;;;;19.17;8.30;;;;;;;18.17;44.20;102605.31;5093360;28;20507;-78
2022/10/12 00:46:15;;;;;;;14.90;8.10;;;;;;;18.18;44.83;102606.22;5092572;28;20099;-78
2022/10/12 00:48:42;;;;;;;18.87;8.30;;;;;;;18.06;44.61;102613.38;5092473;28;20031;-78
2022/10/12 00:51:08;;;;;;;17.77;8.03;;;;;;;17.89;45.09;102604.78;5092405;28;20024;-77
2022/10/12 00:53:44;;;;;;;18.03;8.57;;;;;;;18.05;44.47;102611.66;5093442;28;20031;-78
2022/10/12 00:56:14;;;;;;;13.87;7.40;;;;;;;18.18;44.54;102600.91;5093419;28;20046;-77
2022/10/12 00:58:39;;;;;;;15.87;8.47;;;;;;;18.20;43.99;102599.09;5092567;28;20062;-78
2022/10/12 01:01:06;;;;;;;17.50;7.70;;;;;;;17.86;45.17;102599.50;5093226;28;20055;-78
2022/10/12 01:03:32;;;;;;;17.13;7.80;;;;;;;18.00;44.41;102597.59;5093111;28;20031;-77
2022/10/12 01:05:58;;;;;;;19.50;7.90;;;;;;;17.90;44.60;102601.22;5092311;28;20353;-78
2022/10/12 01:08:23;;;;;;;14.00;7.50;;;;;;;18.02;44.52;102590.50;5093037;28;20077;-77
2022/10/12 01:10:49;;;;;;;12.17;7.10;;;;;;;17.90;44.58;102601.22;5092818;28;20024;-77
2022/10/12 01:13:14;;;;;;;18.73;7.77;;;;;;;17.79;45.27;102598.72;5092101;28;20064;-77
2022/10/12 01:15:53;;;;;;;16.27;7.40;;;;;;;17.87;44.58;102593.34;5092847;28;20028;-77
2022/10/12 01:18:26;;;;;;;22.13;8.23;;;;;;;17.75;45.37;102597.88;5092519;28;20034;-78
2022/10/12 01:21:18;;;;;;;20.73;7.33;;;;;;;17.79;44.47;102586.38;5092146;28;20424;-77
2022/10/12 01:24:14;;;;;;;16.30;6.87;;;;;;;17.72;44.75;102583.81;5092536;28;20016;-77
2022/10/12 01:27:00;;;;;;;17.63;7.67;;;;;;;17.61;44.80;102589.22;5092281;28;20050;-77
2022/10/12 01:29:51;;;;;;;18.87;7.70;;;;;;;17.44;45.46;102582.38;5092490;28;20020;-77
2022/10/12 01:32:19;;;;;;;15.77;7.27;;;;;;;17.51;45.34;102582.31;5092411;28;20023;-77
2022/10/12 01:35:06;;;;;;;16.13;7.27;;;;;;;17.68;44.53;102576.81;5091949;28;20028;-78
2022/10/12 01:37:46;;;;;;;16.00;8.40;;;;;;;17.46;45.54;102574.41;5092382;28;20020;-77
2022/10/12 01:40:19;;;;;;;15.67;7.10;;;;;;;17.55;44.56;102581.38;5092262;28;20036;-77
2022/10/12 01:42:45;;;;;;;14.05;7.57;;;;;;;17.44;44.76;102571.78;5093427;28;20035;-77
2022/10/12 01:45:13;;;;;;;14.23;6.63;;;;;;;17.52;44.37;102574.38;5092214;28;20028;-77
2022/10/12 01:47:41;;;;;;;13.60;7.67;;;;;;;17.15;45.84;102581.81;5091793;28;20459;-77
2022/10/12 01:50:09;;;;;;;12.43;7.17;;;;;;;17.18;45.24;102574.72;5092035;28;20055;-78
2022/10/12 01:53:19;;;;;;;17.30;7.53;;;;;;;17.28;45.16;102576.38;5092176;28;20557;-78
2022/10/12 01:55:50;;;;;;;14.77;8.03;;;;;;;17.19;45.68;102565.03;5092647;28;20480;-77
2022/10/12 01:58:27;;;;;;;13.07;6.57;;;;;;;17.16;45.17;102571.22;5093099;28;20364;-77
2022/10/12 02:01:06;;;;;;;10.70;7.27;;;;;;;17.05;45.89;102570.44;5091977;28;20032;-77
2022/10/12 02:03:53;;;;;;;15.23;7.27;;;;;;;16.89;46.43;102567.09;5091332;28;20055;-77
2022/10/12 02:06:21;;;;;;;13.47;7.20;;;;;;;17.03;45.73;102559.88;5091849;28;20024;-77
2022/10/12 02:09:00;;;;;;;21.30;7.13;;;;;;;17.09;45.83;102554.56;5092656;28;20016;-77
2022/10/12 02:11:26;;;;;;;15.27;7.43;;;;;;;17.33;44.82;102556.97;5091735;28;20030;-77
2022/10/12 02:14:02;;;;;;;12.20;6.63;;;;;;;17.22;45.37;102559.72;5091659;28;20028;-77
2022/10/12 02:16:35;;;;;;;12.87;6.80;;;;;;;17.03;45.49;102551.97;5091325;28;20095;-77
2022/10/12 02:19:04;;;;;;;13.90;6.90;;;;;;;17.25;44.72;102551.75;5091835;28;20024;-77
2022/10/12 02:21:32;;;;;;;12.83;6.80;;;;;;;17.10;45.15;102551.03;5092694;28;20035;-77
2022/10/12 02:24:04;;;;;;;11.73;6.50;;;;;;;17.25;44.65;102562.31;5091250;28;20024;-77
2022/10/12 02:26:33;;;;;;;11.13;6.27;;;;;;;17.06;45.45;102551.97;5091997;28;20024;-77
2022/10/12 02:29:02;;;;;;;12.47;6.70;;;;;;;16.74;46.20;102545.16;5091578;28;20024;-77
2022/10/12 02:31:36;;;;;;;15.17;7.07;;;;;;;16.76;45.47;102539.84;5090595;28;20027;-78
2022/10/12 02:34:20;;;;;;;11.23;6.73;;;;;;;16.55;46.47;102538.28;5091613;28;20383;-77
2022/10/12 02:36:50;;;;;;;12.73;6.70;;;;;;;16.90;45.74;102539.78;5091874;28;20039;-77
2022/10/12 02:39:27;;;;;;;12.63;6.43;;;;;;;16.78;45.78;102533.69;5092225;28;20031;-77
2022/10/12 02:42:07;;;;;;;11.37;6.30;;;;;;;16.86;45.46;102538.03;5091562;28;20507;-77
2022/10/12 02:44:35;;;;;;;11.97;6.47;;;;;;;16.73;45.67;102530.22;5090863;28;20031;-77
2022/10/12 02:47:03;;;;;;;16.73;6.67;;;;;;;16.83;45.57;102530.13;5091615;28;20073;-77
2022/10/12 02:49:30;;;;;;;14.53;6.77;;;;;;;16.83;45.05;102535.41;5091136;28;20076;-77
2022/10/12 02:51:57;;;;;;;9.57;5.77;;;;;;;16.71;45.57;102529.34;5090378;28;20176;-77
2022/10/12 02:54:22;;;;;;;11.27;6.23;;;;;;;16.75;46.09;102531.06;5091768;28;20027;-77
2022/10/12 02:56:48;;;;;;;9.33;5.73;;;;;;;16.73;45.92;102529.34;5091428;28;20028;-77
2022/10/12 02:59:14;;;;;;;7.97;5.30;;;;;;;16.73;45.73;102524.94;5090493;28;20024;-78
2022/10/12 03:01:39;;;;;;;10.63;5.67;;;;;;;16.61;46.08;102530.31;5091389;28;20229;-77
2022/10/12 03:04:05;;;;;;;9.47;5.33;;;;;;;16.55;45.86;102525.09;5092413;28;20020;-77
2022/10/12 03:06:30;;;;;;;7.80;5.17;;;;;;;16.61;45.57;102525.06;5090779;28;20024;-78
2022/10/12 03:08:56;;;;;;;8.60;5.23;;;;;;;16.71;45.65;102521.44;5092162;28;20024;-78
2022/10/12 03:11:22;;;;;;;10.53;5.07;;;;;;;16.66;45.36;102517.94;5093009;28;20020;-77
2022/10/12 03:13:50;;;;;;;11.87;6.17;;;;;;;16.65;45.31;102526.78;5095003;28;20047;-78
2022/10/12 03:16:15;;;;;;;11.27;5.43;;;;;;;16.63;45.84;102523.25;5095444;28;20020;-77
2022/10/12 03:18:41;;;;;;;10.00;5.43;;;;;;;16.88;44.90;102523.91;5095350;28;20023;-77
2022/10/12 03:21:06;;;;;;;12.13;4.77;;;;;;;16.71;45.77;102520.56;5094501;28;20024;-78
2022/10/12 03:23:31;;;;;;;6.80;4.47;;;;;;;16.29;47.29;102518.22;5094720;28;20476;-77
2022/10/12 03:25:57;;;;;;;10.33;4.87;;;;;;;16.06;47.34;102526.28;5094519;28;20055;-78
2022/10/12 03:28:22;;;;;;;8.00;4.77;;;;;;;16.48;46.64;102518.13;5095014;28;20034;-78
2022/10/12 03:30:48;;;;;;;9.50;4.40;;;;;;;16.55;46.08;102525.09;5095052;28;20023;-78
2022/10/12 03:33:13;;;;;;;7.27;4.13;;;;;;;16.73;46.41;102524.94;5094101;28;20046;-78
2022/10/12 03:35:41;;;;;;;6.40;4.53;;;;;;;16.88;45.44;102529.19;5094787;28;20160;-78
2022/10/12 03:38:07;;;;;;;7.03;4.40;;;;;;;16.64;46.39;102522.38;5094768;28;20069;-78
2022/10/12 03:40:34;;;;;;;4.97;4.20;;;;;;;16.74;46.04;102516.09;5094341;28;20119;-77
2022/10/12 03:42:59;;;;;;;10.40;3.90;;;;;;;16.84;45.84;102516.03;5094695;28;20031;-78
2022/10/12 03:45:25;;;;;;;6.47;4.70;;;;;;;17.03;45.41;102517.63;5094678;28;20024;-77
2022/10/12 03:47:50;;;;;;;7.27;4.80;;;;;;;16.89;45.76;102519.53;5094158;28;20483;-78
2022/10/12 03:50:15;;;;;;;11.97;4.40;;;;;;;16.89;45.74;102525.69;5094579;28;20012;-77
2022/10/12 03:52:41;;;;;;;11.73;5.13;;;;;;;16.75;45.95;102520.50;5094250;28;20454;-78
2022/10/12 03:55:06;;;;;;;13.27;5.17;;;;;;;16.71;46.33;102521.44;5094138;28;20020;-78
2022/10/12 03:57:32;;;;;;;5.47;4.20;;;;;;;16.65;46.30;102520.59;5094501;28;20020;-78
2022/10/12 03:59:57;;;;;;;4.53;3.83;;;;;;;16.88;45.96;102523.03;5094364;28;20028;-78
2022/10/12 04:02:22;;;;;;;11.03;4.37;;;;;;;16.89;45.96;102515.13;5093920;28;20039;-77
2022/10/12 04:04:48;;;;;;;9.33;4.60;;;;;;;17.00;45.34;102525.59;5095355;28;20028;-77
2022/10/12 04:07:13;;;;;;;8.60;3.90;;;;;;;17.08;45.28;102531.66;5095444;28;20059;-77
2022/10/12 04:09:38;;;;;;;7.30;4.83;;;;;;;16.73;46.50;102530.22;5093616;28;20058;-77
2022/10/12 04:12:04;;;;;;;7.70;4.00;;;;;;;16.87;45.66;102526.56;5094053;28;20024;-78
2022/10/12 04:14:29;;;;;;;7.97;4.17;;;;;;;16.86;45.51;102525.69;5093953;28;20070;-77
2022/10/12 04:16:54;;;;;;;6.60;4.53;;;;;;;16.76;45.66;102524.91;5093608;28;20028;-78
2022/10/12 04:19:20;;;;;;;6.40;3.97;;;;;;;16.64;46.09;102519.72;5094000;28;20024;-78
2022/10/12 04:21:45;;;;;;;7.17;4.57;;;;;;;16.76;45.54;102522.25;5093491;28;20051;-78
2022/10/12 04:24:10;;;;;;;6.27;4.50;;;;;;;16.79;45.34;102522.22;5094514;28;20077;-78
2022/10/12 04:26:36;;;;;;;10.57;4.27;;;;;;;16.54;45.62;102513.66;5093728;28;20020;-77
2022/10/12 04:29:02;;;;;;;8.83;4.30;;;;;;;16.57;45.91;102515.41;5093862;28;20109;-77
2022/10/12 04:31:27;;;;;;;12.97;5.17;;;;;;;16.52;45.68;102512.78;5093142;28;20031;-78
2022/10/12 04:33:55;;;;;;;10.50;4.40;;;;;;;16.47;46.40;102517.22;5093502;28;20034;-77
2022/10/12 04:36:24;;;;;;;11.40;4.90;;;;;;;16.37;46.32;102511.13;5092701;28;20028;-78
2022/10/12 04:38:49;;;;;;;10.90;4.33;;;;;;;16.50;45.61;102517.22;5093784;28;20035;-78
2022/10/12 04:41:15;;;;;;;7.70;4.63;;;;;;;16.70;45.77;102503.81;5093605;28;20016;-77
2022/10/12 04:43:40;;;;;;;9.43;4.50;;;;;;;16.56;45.65;102506.59;5093724;28;20071;-78
2022/10/12 04:46:05;;;;;;;8.00;4.10;;;;;;;16.51;45.72;102507.53;5093419;28;20055;-77
2022/10/12 04:48:31;;;;;;;6.43;4.33;;;;;;;16.54;45.59;102504.84;5093307;28;20019;-78
2022/10/12 04:50:56;;;;;;;7.50;4.60;;;;;;;16.55;45.60;102503.97;5093762;28;20028;-77
2022/10/12 04:53:22;;;;;;;7.47;4.33;;;;;;;16.53;45.43;102500.47;5093092;28;20044;-77
2022/10/12 04:55:47;;;;;;;7.53;4.20;;;;;;;16.53;45.47;102497.84;5093203;28;20493;-77
2022/10/12 04:58:13;;;;;;;8.10;4.17;;;;;;;16.56;45.48;102496.03;5093779;28;20024;-77
2022/10/12 05:00:38;;;;;;;9.03;4.73;;;;;;;16.32;46.10;102497.13;5093342;28;20153;-77
2022/10/12 05:03:04;;;;;;;11.80;4.90;;;;;;;16.56;46.04;102500.44;5093329;28;20036;-78
2022/10/12 05:05:29;;;;;;;11.40;5.07;;;;;;;16.77;45.53;102481.78;5093832;28;20110;-77
2022/10/12 05:07:55;;;;;;;10.83;5.50;;;;;;;16.83;45.74;102477.31;5093067;28;20095;-78
2022/10/12 05:10:20;;;;;;;12.97;5.33;;;;;;;16.98;45.57;102482.47;5093293;28;20039;-78
2022/10/12 05:12:45;;;;;;;10.83;5.00;;;;;;;16.86;45.97;102482.56;5092560;28;20019;-78
2022/10/12 05:15:11;;;;;;;10.07;5.17;;;;;;;17.06;45.04;102479.75;5094137;28;20024;-77
2022/10/12 05:17:36;;;;;;;11.67;5.57;;;;;;;17.11;45.18;102484.06;5094007;28;20501;-78
2022/10/12 05:20:03;;;;;;;12.17;5.17;;;;;;;17.22;45.28;102480.44;5092063;28;20108;-77
2022/10/12 05:22:30;;;;;;;12.20;5.43;;;;;;;17.08;45.53;102478.84;5092713;28;20028;-78
2022/10/12 05:24:55;;;;;;;15.60;5.67;;;;;;;17.05;45.53;102473.59;5092858;28;20028;-78
2022/10/12 05:27:20;;;;;;;10.53;5.97;;;;;;;17.23;45.78;102476.94;5092079;28;20560;-78
2022/10/12 05:29:46;;;;;;;9.93;5.47;;;;;;;16.94;45.37;102476.34;5092742;28;20480;-78
2022/10/12 05:32:11;;;;;;;13.33;6.87;;;;;;;17.08;45.98;102468.25;5092703;28;20016;-78
2022/10/12 05:34:36;;;;;;;15.23;7.53;;;;;;;17.08;45.81;102478.84;5091110;28;20023;-78
2022/10/12 05:37:02;;;;;;;9.07;5.47;;;;;;;16.93;45.56;102479.00;5092693;28;20028;-77
2022/10/12 05:39:27;;;;;;;12.07;5.70;;;;;;;17.01;45.82;102487.72;5091559;28;20034;-78
2022/10/12 05:41:54;;;;;;;9.13;6.03;;;;;;;17.08;45.56;102494.69;5092486;28;20085;-77
2022/10/12 05:44:20;;;;;;;9.90;5.53;;;;;;;16.96;45.03;102494.81;5092071;28;20046;-78
2022/10/12 05:46:45;;;;;;;19.33;6.33;;;;;;;17.09;45.01;102485.88;5092509;28;20530;-78
2022/10/12 05:49:10;;;;;;;12.67;5.93;;;;;;;16.71;45.64;102489.75;5093504;28;20066;-78
2022/10/12 05:51:37;;;;;;;9.17;5.73;;;;;;;16.78;45.56;102491.44;5092438;28;20056;-78
2022/10/12 05:54:03;;;;;;;11.53;5.60;;;;;;;16.72;45.04;102483.59;5092207;28;20031;-78
2022/10/12 05:56:28;;;;;;;11.67;5.50;;;;;;;16.63;45.34;102483.66;5092059;28;20028;-77
2022/10/12 05:58:54;;;;;;;10.90;5.03;;;;;;;16.38;45.69;102485.66;5091992;28;20101;-78
2022/10/12 06:01:19;;;;;;;12.40;5.73;;;;;;;16.43;45.57;102484.72;5091489;28;20028;-78
2022/10/12 06:03:45;;;;;;;10.37;5.33;;;;;;;16.40;45.50;102482.13;5092002;28;20054;-78
2022/10/12 06:06:10;;;;;;;11.47;6.17;;;;;;;16.33;45.55;102487.44;5092059;28;20028;-78
2022/10/12 06:08:35;;;;;;;11.37;5.90;;;;;;;16.34;45.87;102494.47;5091631;28;20039;-78
2022/10/12 06:11:01;;;;;;;12.07;5.87;;;;;;;16.21;46.29;102488.41;5091959;28;20027;-78
2022/10/12 06:13:27;;;;;;;11.03;5.43;;;;;;;16.22;46.03;102484.88;5092838;28;20024;-77
2022/10/12 06:15:52;;;;;;;16.20;6.70;;;;;;;16.22;46.14;102490.16;5091183;28;20162;-78
2022/10/12 06:18:18;;;;;;;11.13;6.00;;;;;;;16.31;45.56;102484.81;5091918;28;20036;-78
2022/10/12 06:20:52;;;;;;;10.53;5.53;;;;;;;16.20;45.99;102484.03;5091597;28;20028;-78
2022/10/12 06:23:18;;;;;;;11.07;5.40;;;;;;;15.95;46.42;102486.84;5091314;28;20631;-78
2022/10/12 06:25:46;;;;;;;7.93;4.97;;;;;;;16.10;46.09;102489.38;5091787;28;20067;-78
2022/10/12 06:28:12;;;;;;;12.40;5.40;;;;;;;16.16;46.04;102490.22;5093157;28;20031;-78
2022/10/12 06:30:37;;;;;;;8.60;5.20;;;;;;;16.10;45.75;102481.44;5091211;28;20028;-78
2022/10/12 06:33:03;;;;;;;12.57;5.67;;;;;;;16.00;46.26;102479.75;5091531;28;20020;-78
2022/10/12 06:35:28;;;;;;;12.43;5.23;;;;;;;16.33;45.94;102480.38;5091668;28;20028;-78
2022/10/12 06:37:54;;;;;;;12.50;5.97;;;;;;;16.20;46.12;102478.75;5091147;28;20067;-78
2022/10/12 06:40:19;;;;;;;9.60;5.97;;;;;;;16.33;46.51;102474.25;5092556;28;20035;-78
2022/10/12 06:42:45;;;;;;;18.97;6.73;;;;;;;16.30;46.17;102475.16;5090929;28;20498;-77
2022/10/12 06:45:11;;;;;;;10.37;6.20;;;;;;;16.38;46.56;102472.44;5091544;28;20024;-78
2022/10/12 06:47:36;;;;;;;10.93;6.93;;;;;;;16.66;46.03;102467.78;5095249;28;20024;-77
2022/10/12 06:50:02;;;;;;;18.10;7.40;;;;;;;16.70;45.91;102466.88;5094914;28;20559;-78
2022/10/12 06:52:27;;;;;;;10.40;7.07;;;;;;;16.54;46.94;102465.25;5095611;28;20051;-78
2022/10/12 06:54:52;;;;;;;15.97;7.17;;;;;;;16.86;45.96;102461.44;5095690;28;20078;-77
2022/10/12 06:57:18;;;;;;;17.33;8.40;;;;;;;16.45;47.38;102464.44;5095107;28;20024;-78
2022/10/12 06:59:43;;;;;;;18.57;8.17;;;;;;;16.83;46.74;102466.75;5095639;28;20042;-78
2022/10/12 07:02:10;;;;;;;17.67;8.43;;;;;;;16.89;46.11;102461.44;5095288;28;20024;-78
2022/10/12 07:04:35;;;;;;;25.93;8.77;;;;;;;17.33;45.14;102462.69;5095144;28;20060;-78
2022/10/12 07:07:01;;;;;;;18.73;9.40;;;;;;;17.42;45.33;102461.69;5095194;28;20051;-78
2022/10/12 07:09:26;;;;;;;19.37;9.53;;;;;;;17.57;45.35;102461.50;5095613;28;20453;-77
2022/10/12 07:11:52;;;;;;;16.53;8.97;;;;;;;17.79;45.04;102461.19;5094843;28;20617;-78
2022/10/12 07:14:17;;;;;;;14.13;7.63;;;;;;;17.32;45.64;102455.66;5096544;28;20027;-77
2022/10/12 07:16:42;;;;;;;20.30;9.37;;;;;;;17.59;45.46;102470.28;5094943;28;20027;-78
2022/10/12 07:19:08;;;;;;;22.03;9.30;;;;;;;17.60;45.28;102466.75;5094523;28;20031;-78
2022/10/12 07:21:33;;;;;;;20.53;9.77;;;;;;;17.73;45.41;102467.44;5095438;28;20165;-78
2022/10/12 07:23:58;;;;;;;23.60;9.73;;;;;;;17.25;45.92;102470.69;5095016;28;20081;-77
2022/10/12 07:26:24;;;;;;;17.50;9.10;;;;;;;17.65;45.13;102474.59;5094539;28;20024;-78
2022/10/12 07:28:49;;;;;;;15.63;9.97;;;;;;;17.53;45.09;102475.66;5095181;28;20551;-78
2022/10/12 07:31:15;;;;;;;19.90;10.47;;;;;;;17.59;45.07;102474.69;5094892;28;20050;-78
2022/10/12 07:33:40;;;;;;;18.57;10.40;;;;;;;17.98;44.59;102472.41;5094117;28;20024;-78
2022/10/12 07:36:06;;;;;;;23.17;9.53;;;;;;;17.56;45.43;102466.81;5096033;28;20541;-78
2022/10/12 07:38:31;;;;;;;18.93;8.93;;;;;;;17.67;44.63;102472.81;5094861;28;20032;-78
2022/10/12 07:41:01;;;;;;;21.70;9.70;;;;;;;17.44;45.52;102474.00;5094348;28;20036;-78
2022/10/12 07:43:28;;;;;;;20.77;9.90;;;;;;;17.40;45.14;102474.94;5094713;28;20024;-78
2022/10/12 07:45:54;;;;;;;20.40;9.90;;;;;;;17.41;45.37;102466.09;5094676;28;20480;-77
2022/10/12 07:48:20;;;;;;;21.07;10.10;;;;;;;17.45;45.14;102467.81;5093742;28;20032;-78
2022/10/12 07:50:46;;;;;;;20.27;10.00;;;;;;;17.36;45.78;102470.56;5094545;28;20020;-77
2022/10/12 07:53:11;;;;;;;17.37;9.63;;;;;;;17.55;45.36;102467.72;5094571;28;20089;-77
2022/10/12 07:55:37;;;;;;;18.20;10.63;;;;;;;17.06;46.86;102464.78;5095978;28;20388;-78
2022/10/12 07:58:02;;;;;;;18.00;9.13;;;;;;;17.71;45.39;102468.34;5094448;28;20031;-77
2022/10/12 08:00:28;;;;;;;21.63;11.73;;;;;;;17.67;45.86;102464.91;5093448;28;20027;-77
2022/10/12 08:02:53;;;;;;;22.87;12.03;;;;;;;17.80;45.93;102462.94;5094448;28;20024;-77
2022/10/12 08:05:22;;;;;;;20.90;11.23;;;;;;;17.81;45.43;102467.34;5095511;28;20332;-77
2022/10/12 08:07:49;;;;;;;24.60;12.87;;;;;;;17.57;46.79;102471.19;5093222;28;20020;-77
2022/10/12 08:10:14;;;;;;;28.87;13.17;;;;;;;17.87;46.42;102482.25;5093952;28;20051;-77
2022/10/12 08:12:40;;;;;;;23.60;12.70;;;;;;;17.95;45.97;102481.25;5093874;28;20054;-78
2022/10/12 08:15:06;;;;;;;24.73;12.37;;;;;;;18.05;45.59;102479.38;5093141;28;20016;-77
2022/10/12 08:17:31;;;;;;;21.30;12.77;;;;;;;18.12;45.67;102481.00;5094064;28;20020;-77
2022/10/12 08:19:56;;;;;;;25.43;12.67;;;;;;;18.23;45.42;102483.50;5094109;28;20027;-78
2022/10/12 08:22:22;;;;;;;28.03;12.53;;;;;;;18.40;45.34;102491.16;5093391;28;20046;-77
2022/10/12 08:24:47;;;;;;;22.90;12.20;;;;;;;17.36;47.47;102494.34;5094895;28;20427;-78
2022/10/12 08:27:13;;;;;;;27.37;14.63;;;;;;;17.74;46.89;102495.63;5093913;28;20031;-78
2022/10/12 08:29:38;;;;;;;22.47;12.87;;;;;;;17.21;48.34;102491.91;5094554;28;20099;-78
2022/10/12 08:32:04;;;;;;;27.70;12.83;;;;;;;18.12;46.19;102486.31;5094181;28;20472;-77
2022/10/12 08:34:30;;;;;;;32.60;12.57;;;;;;;18.35;45.42;102477.09;5093589;28;20065;-78
2022/10/12 08:36:56;;;;;;;28.07;12.33;;;;;;;18.19;46.21;102472.97;5093453;28;20135;-78
2022/10/12 08:39:22;;;;;;;30.30;12.57;;;;;;;18.72;45.43;102471.16;5093670;28;20030;-78
2022/10/12 08:42:06;;;;;;;30.73;13.83;;;;;;;19.12;44.90;102467.81;5093744;28;20118;-78
2022/10/12 08:44:44;;;;;;;23.37;12.73;;;;;;;18.74;45.49;102487.94;5093157;28;20077;-78
2022/10/12 08:47:42;;;;;;;21.23;12.60;;;;;;;19.12;44.87;102481.06;5093558;28;20073;-78
2022/10/12 08:50:40;;;;;;;28.73;14.10;;;;;;;18.60;46.38;102487.28;5093084;28;20480;-78
2022/10/12 08:53:30;;;;;;;25.87;13.80;;;;;;;19.27;45.19;102479.00;5092950;28;20046;-78
2022/10/12 08:55:57;;;;;;;24.93;13.00;;;;;;;18.89;45.74;102472.66;5094470;28;20024;-78
2022/10/12 08:58:35;;;;;;;24.73;13.20;;;;;;;19.08;45.68;102475.84;5093039;28;20027;-78
2022/10/12 09:01:23;;;;;;;25.17;14.27;;;;;;;18.41;47.09;102479.66;5093407;28;20028;-78
2022/10/12 09:03:48;;;;;;;28.33;13.17;;;;;;;18.24;46.98;102479.06;5092548;28;20109;-77
2022/10/12 09:06:21;;;;;;;32.87;13.73;;;;;;;19.12;45.70;102470.47;5092870;28;20047;-78
2022/10/12 09:09:18;;;;;;;29.80;12.43;;;;;;;19.68;43.38;102471.94;5092382;28;20026;-78
2022/10/12 09:12:12;;;;;;;22.83;12.27;;;;;;;20.07;43.40;102461.34;5092452;28;20031;-77
2022/10/12 09:14:40;;;;;;;24.80;12.77;;;;;;;20.29;42.73;102460.78;5089993;28;20043;-77
2022/10/12 09:17:20;;;;;;;25.17;12.90;;;;;;;19.99;42.51;102458.88;5094037;28;20020;-78
2022/10/12 09:19:46;;;;;;;28.83;13.40;;;;;;;20.00;44.03;102459.72;5092532;28;20024;-77
2022/10/12 09:22:18;;;;;;;34.00;11.67;;;;;;;19.82;43.32;102472.53;5092790;28;20027;-77
2022/10/12 09:24:47;;;;;;;20.23;11.60;;;;;;;20.82;42.20;102461.19;5092299;28;20030;-78
2022/10/12 09:27:14;;;;;;;30.83;12.40;;;;;;;20.90;41.80;102473.44;5093816;28;20442;-78
2022/10/12 09:29:43;;;;;;;30.87;12.67;;;;;;;20.69;41.49;102475.75;5092725;28;20526;-77
2022/10/12 09:32:19;;;;;;;22.73;11.53;;;;;;;20.65;42.44;102490.00;5093098;28;20107;-77
2022/10/12 09:34:45;;;;;;;27.73;12.07;;;;;;;20.97;41.13;102485.63;5092526;28;20133;-77
2022/10/12 09:37:22;;;;;;;27.80;11.37;;;;;;;20.81;41.69;102491.38;5092352;28;20073;-78
2022/10/12 09:39:48;;;;;;;23.03;11.23;;;;;;;20.49;42.15;102501.00;5091766;28;20123;-77
2022/10/12 09:42:14;;;;;;;25.63;12.30;;;;;;;20.21;42.16;102495.53;5092344;28;20028;-78
2022/10/12 09:44:45;;;;;;;21.87;9.70;;;;;;;21.19;40.24;102483.22;5092141;28;20072;-78
2022/10/12 09:47:26;;;;;;;24.80;10.67;;;;;;;20.96;41.21;102478.56;5091674;28;20070;-76
2022/10/12 09:49:57;;;;;;;19.70;10.40;;;;;;;21.17;41.19;102477.97;5092453;28;20028;-77
2022/10/12 09:52:29;;;;;;;25.00;10.83;;;;;;;21.43;40.11;102468.34;5092149;28;20557;-78
2022/10/12 09:55:00;;;;;;;23.50;10.95;;;;;;;20.73;41.25;102461.47;5092633;28;20032;-77
2022/10/12 09:57:32;;;;;;;27.45;11.95;;;;;;;21.69;40.08;102464.03;5092107;28;20356;-77
2022/10/12 10:00:01;;;;;;;17.20;9.95;;;;;;;20.64;41.69;102461.69;5091570;28;20589;-77
2022/10/12 10:02:27;;;;;;;20.03;10.33;;;;;;;21.31;40.33;102458.94;5092046;28;20019;-78
2022/10/12 10:04:54;;;;;;;16.43;9.67;;;;;;;21.71;40.10;102456.91;5091687;28;20442;-78
2022/10/12 10:07:32;;;;;;;18.50;9.43;;;;;;;21.93;39.65;102450.91;5091359;28;20020;-77
2022/10/12 10:10:13;;;;;;;20.48;10.90;;;;;;;21.69;40.15;102448.06;5092115;28;20399;-77
2022/10/12 10:12:43;;;;;;;20.77;10.60;;;;;;;21.47;40.55;102443.41;5091856;28;20028;-77
2022/10/12 10:15:38;;;;;;;19.08;10.75;;;;;;;21.73;40.59;102436.41;5091445;28;20032;-77
2022/10/12 10:18:16;;;;;;;22.85;11.70;;;;;;;21.63;40.05;102421.66;5091197;28;20040;-77
2022/10/12 10:20:50;;;;;;;22.02;10.98;;;;;;;22.50;38.71;102415.25;5091626;28;20066;-77
2022/10/12 10:23:42;;;;;;;20.38;11.10;;;;;;;21.84;39.74;102417.44;5091808;28;20028;-77
2022/10/12 10:26:13;;;;;;;23.92;10.77;;;;;;;22.31;38.76;102399.00;5091259;28;20019;-76
2022/10/12 10:28:41;;;;;;;22.98;10.93;;;;;;;22.66;39.09;102399.56;5092823;28;20073;-77
2022/10/12 10:31:20;;;;;;;21.25;11.48;;;;;;;22.52;38.72;102391.22;5091508;28;20027;-77
2022/10/12 10:34:16;;;;;;;30.42;9.70;;;;;;;22.09;39.56;102382.03;5091442;28;20016;-76
2022/10/12 10:36:51;;;;;;;21.05;10.75;;;;;;;22.17;38.92;102375.53;5090724;28;20065;-76
2022/10/12 10:39:24;;;;;;;22.30;9.82;;;;;;;22.35;37.73;102378.47;5091352;28;20074;-77
2022/10/12 10:41:50;;;;;;;21.13;11.07;;;;;;;21.70;39.28;102385.97;5092029;28;20051;-77
2022/10/12 10:44:23;;;;;;;20.30;9.43;;;;;;;22.15;39.24;102382.69;5091135;28;20031;-77
2022/10/12 10:46:50;;;;;;;22.77;9.43;;;;;;;22.08;39.22;102383.81;5092268;28;20031;-77
2022/10/12 10:49:34;;;;;;;21.00;9.45;;;;;;;22.45;37.84;102368.38;5090317;28;20027;-76
2022/10/12 10:52:01;;;;;;;18.13;9.63;;;;;;;22.65;38.13;102367.66;5091166;28;20102;-77
2022/10/12 10:54:32;;;;;;;15.30;9.13;;;;;;;22.45;38.23;102363.03;5091047;28;20413;-76
2022/10/12 10:57:05;;;;;;;14.60;8.93;;;;;;;22.35;39.12;102357.16;5090558;28;20016;-76
2022/10/12 10:59:55;;;;;;;19.55;8.98;;;;;;;23.00;37.51;102360.13;5091415;28;20028;-77
2022/10/12 11:02:27;;;;;;;24.20;9.75;;;;;;;22.90;37.15;102364.91;5092280;28;20041;-76
2022/10/12 11:05:06;;;;;;;21.95;9.63;;;;;;;22.85;36.64;102362.44;5090408;28;20438;-76
2022/10/12 11:07:40;;;;;;;18.27;10.07;;;;;;;22.01;37.84;102374.31;5092313;28;20017;-76
2022/10/12 11:10:20;;;;;;;17.70;9.52;;;;;;;22.78;37.54;102365.38;5092029;28;20034;-77
2022/10/12 11:12:48;;;;;;;20.80;10.20;;;;;;;23.81;36.43;102356.03;5091047;28;20020;-77
2022/10/12 11:15:31;;;;;;;16.65;10.55;;;;;;;23.58;35.78;102361.47;5090787;28;20020;-76
2022/10/12 11:18:03;;;;;;;26.67;10.02;;;;;;;23.57;34.87;102349.91;5090364;28;20042;-76
2022/10/12 11:20:40;;;;;;;19.85;10.77;;;;;;;23.97;34.99;102358.06;5090848;28;20024;-76
2022/10/12 11:23:33;;;;;;;21.60;10.70;;;;;;;23.47;35.21;102349.41;5090887;28;20038;-77
2022/10/12 11:26:08;;;;;;;19.15;10.30;;;;;;;23.98;34.48;102354.47;5090009;28;20032;-76
2022/10/12 11:28:34;;;;;;;31.23;12.52;;;;;;;24.68;33.59;102345.16;5090587;28;20028;-77